sensor_id;sensor_type;location;lat;lon;timestamp;P1;durP1;ratioP1;P2;durP2;ratioP2
58878;SDS011;44660;42.664;23.266;2023-05-16T00:00:30;21.27;;;11.10;;
58878;SDS011;44660;42.664;23.266;2023-05-16T00:02:59;15.75;;;11.00;;
58878;SDS011;44660;42.664;23.266;2023-05-16T00:07:54;15.00;;;10.73;;
58878;SDS011;44660;42.664;23.266;2023-05-16T00:10:19;20.55;;;11.48;;
58878;SDS011;44660;42.664;23.266;2023-05-16T00:12:45;17.77;;;11.13;;
58878;SDS011;44660;42.664;23.266;2023-05-16T00:15:15;20.13;;;11.60;;
58878;SDS011;44660;42.664;23.266;2023-05-16T00:17:42;14.85;;;11.55;;
58878;SDS011;44660;42.664;23.266;2023-05-16T00:20:12;20.50;;;12.77;;
58878;SDS011;44660;42.664;23.266;2023-05-16T00:22:38;23.20;;;12.63;;
58878;SDS011;44660;42.664;23.266;2023-05-16T00:25:04;19.75;;;12.68;;
58878;SDS011;44660;42.664;23.266;2023-05-16T00:27:32;21.30;;;11.57;;
58878;SDS011;44660;42.664;23.266;2023-05-16T00:29:58;19.33;;;12.35;;
58878;SDS011;44660;42.664;23.266;2023-05-16T00:32:25;20.48;;;12.75;;
58878;SDS011;44660;42.664;23.266;2023-05-16T00:34:51;19.73;;;13.00;;
58878;SDS011;44660;42.664;23.266;2023-05-16T00:37:16;23.60;;;13.40;;
58878;SDS011;44660;42.664;23.266;2023-05-16T00:39:42;18.63;;;12.73;;
58878;SDS011;44660;42.664;23.266;2023-05-16T00:42:07;18.50;;;12.05;;
58878;SDS011;44660;42.664;23.266;2023-05-16T00:44:33;20.45;;;13.55;;
58878;SDS011;44660;42.664;23.266;2023-05-16T00:46:58;19.38;;;12.48;;
58878;SDS011;44660;42.664;23.266;2023-05-16T00:49:25;16.45;;;12.70;;
58878;SDS011;44660;42.664;23.266;2023-05-16T00:51:50;21.08;;;12.60;;
58878;SDS011;44660;42.664;23.266;2023-05-16T00:54:17;21.10;;;12.27;;
58878;SDS011;44660;42.664;23.266;2023-05-16T00:56:45;16.75;;;11.88;;
58878;SDS011;44660;42.664;23.266;2023-05-16T00:59:10;21.45;;;12.95;;
58878;SDS011;44660;42.664;23.266;2023-05-16T01:01:36;20.00;;;13.15;;
58878;SDS011;44660;42.664;23.266;2023-05-16T01:04:02;25.15;;;12.73;;
58878;SDS011;44660;42.664;23.266;2023-05-16T01:06:28;22.27;;;13.90;;
58878;SDS011;44660;42.664;23.266;2023-05-16T01:08:53;19.98;;;13.13;;
58878;SDS011;44660;42.664;23.266;2023-05-16T01:14:31;20.50;;;12.63;;
58878;SDS011;44660;42.664;23.266;2023-05-16T01:17:12;18.67;;;12.23;;
58878;SDS011;44660;42.664;23.266;2023-05-16T01:25:21;21.75;;;13.05;;
58878;SDS011;44660;42.664;23.266;2023-05-16T01:27:52;19.38;;;13.52;;
58878;SDS011;44660;42.664;23.266;2023-05-16T01:30:19;21.33;;;13.77;;
58878;SDS011;44660;42.664;23.266;2023-05-16T01:32:44;18.55;;;13.18;;
58878;SDS011;44660;42.664;23.266;2023-05-16T01:35:11;18.35;;;13.68;;
58878;SDS011;44660;42.664;23.266;2023-05-16T01:43:41;22.80;;;13.85;;
58878;SDS011;44660;42.664;23.266;2023-05-16T01:46:10;23.40;;;14.75;;
58878;SDS011;44660;42.664;23.266;2023-05-16T01:48:40;21.10;;;14.15;;
58878;SDS011;44660;42.664;23.266;2023-05-16T01:51:14;21.85;;;14.50;;
58878;SDS011;44660;42.664;23.266;2023-05-16T01:53:40;21.63;;;14.57;;
58878;SDS011;44660;42.664;23.266;2023-05-16T01:56:10;23.37;;;15.03;;
58878;SDS011;44660;42.664;23.266;2023-05-16T01:58:39;21.35;;;14.07;;
58878;SDS011;44660;42.664;23.266;2023-05-16T02:01:06;21.45;;;14.75;;
58878;SDS011;44660;42.664;23.266;2023-05-16T02:03:31;24.17;;;14.38;;
58878;SDS011;44660;42.664;23.266;2023-05-16T02:05:58;23.45;;;15.40;;
58878;SDS011;44660;42.664;23.266;2023-05-16T02:08:23;43.65;;;25.27;;
58878;SDS011;44660;42.664;23.266;2023-05-16T02:10:50;97.15;;;58.40;;
58878;SDS011;44660;42.664;23.266;2023-05-16T02:13:16;31.10;;;20.27;;
58878;SDS011;44660;42.664;23.266;2023-05-16T02:15:42;28.05;;;17.33;;
58878;SDS011;44660;42.664;23.266;2023-05-16T02:18:07;26.80;;;15.80;;
58878;SDS011;44660;42.664;23.266;2023-05-16T02:20:33;19.75;;;14.60;;
58878;SDS011;44660;42.664;23.266;2023-05-16T02:22:58;22.58;;;15.32;;
58878;SDS011;44660;42.664;23.266;2023-05-16T02:25:24;24.95;;;14.95;;
58878;SDS011;44660;42.664;23.266;2023-05-16T02:27:50;20.90;;;14.68;;
58878;SDS011;44660;42.664;23.266;2023-05-16T02:30:15;21.70;;;15.55;;
58878;SDS011;44660;42.664;23.266;2023-05-16T02:32:41;23.88;;;14.82;;
58878;SDS011;44660;42.664;23.266;2023-05-16T02:35:09;24.52;;;14.40;;
58878;SDS011;44660;42.664;23.266;2023-05-16T02:37:35;22.33;;;15.25;;
58878;SDS011;44660;42.664;23.266;2023-05-16T02:40:00;23.77;;;13.98;;
58878;SDS011;44660;42.664;23.266;2023-05-16T02:42:27;20.27;;;15.05;;
58878;SDS011;44660;42.664;23.266;2023-05-16T02:44:53;21.92;;;14.63;;
58878;SDS011;44660;42.664;23.266;2023-05-16T02:47:19;21.30;;;14.57;;
58878;SDS011;44660;42.664;23.266;2023-05-16T02:49:44;22.45;;;14.90;;
58878;SDS011;44660;42.664;23.266;2023-05-16T02:52:10;20.98;;;14.63;;
58878;SDS011;44660;42.664;23.266;2023-05-16T02:54:35;22.63;;;15.23;;
58878;SDS011;44660;42.664;23.266;2023-05-16T02:57:01;21.00;;;15.18;;
58878;SDS011;44660;42.664;23.266;2023-05-16T02:59:29;22.20;;;14.85;;
58878;SDS011;44660;42.664;23.266;2023-05-16T03:01:54;23.70;;;14.75;;
58878;SDS011;44660;42.664;23.266;2023-05-16T03:04:20;27.60;;;16.00;;
58878;SDS011;44660;42.664;23.266;2023-05-16T03:06:47;23.15;;;16.45;;
58878;SDS011;44660;42.664;23.266;2023-05-16T03:09:15;22.98;;;16.00;;
58878;SDS011;44660;42.664;23.266;2023-05-16T03:11:40;22.70;;;15.82;;
58878;SDS011;44660;42.664;23.266;2023-05-16T03:14:06;24.23;;;15.88;;
58878;SDS011;44660;42.664;23.266;2023-05-16T03:16:32;23.08;;;15.52;;
58878;SDS011;44660;42.664;23.266;2023-05-16T03:18:57;23.55;;;15.75;;
58878;SDS011;44660;42.664;23.266;2023-05-16T03:21:23;22.70;;;16.23;;
58878;SDS011;44660;42.664;23.266;2023-05-16T03:23:48;22.00;;;15.95;;
58878;SDS011;44660;42.664;23.266;2023-05-16T03:26:14;25.58;;;16.92;;
58878;SDS011;44660;42.664;23.266;2023-05-16T03:28:40;22.35;;;16.17;;
58878;SDS011;44660;42.664;23.266;2023-05-16T03:31:05;27.15;;;16.45;;
58878;SDS011;44660;42.664;23.266;2023-05-16T03:33:31;22.50;;;16.25;;
58878;SDS011;44660;42.664;23.266;2023-05-16T03:35:56;25.35;;;17.08;;
58878;SDS011;44660;42.664;23.266;2023-05-16T03:38:22;28.60;;;18.00;;
58878;SDS011;44660;42.664;23.266;2023-05-16T03:40:47;28.30;;;17.60;;
58878;SDS011;44660;42.664;23.266;2023-05-16T03:43:13;25.33;;;17.52;;
58878;SDS011;44660;42.664;23.266;2023-05-16T03:45:39;21.95;;;17.20;;
58878;SDS011;44660;42.664;23.266;2023-05-16T03:48:04;24.08;;;16.95;;
58878;SDS011;44660;42.664;23.266;2023-05-16T03:50:30;25.35;;;17.25;;
58878;SDS011;44660;42.664;23.266;2023-05-16T03:52:55;26.33;;;18.02;;
58878;SDS011;44660;42.664;23.266;2023-05-16T03:55:20;24.10;;;16.77;;
58878;SDS011;44660;42.664;23.266;2023-05-16T03:57:46;25.13;;;17.42;;
58878;SDS011;44660;42.664;23.266;2023-05-16T04:00:13;26.20;;;17.05;;
58878;SDS011;44660;42.664;23.266;2023-05-16T04:02:39;25.60;;;17.48;;
58878;SDS011;44660;42.664;23.266;2023-05-16T04:05:06;27.50;;;17.05;;
58878;SDS011;44660;42.664;23.266;2023-05-16T04:07:32;22.90;;;16.75;;
58878;SDS011;44660;42.664;23.266;2023-05-16T04:09:58;26.67;;;17.05;;
58878;SDS011;44660;42.664;23.266;2023-05-16T04:12:23;26.52;;;16.60;;
58878;SDS011;44660;42.664;23.266;2023-05-16T04:14:49;25.50;;;16.05;;
58878;SDS011;44660;42.664;23.266;2023-05-16T04:17:14;27.38;;;16.25;;
58878;SDS011;44660;42.664;23.266;2023-05-16T04:19:40;25.95;;;16.88;;
58878;SDS011;44660;42.664;23.266;2023-05-16T04:22:05;24.10;;;15.85;;
58878;SDS011;44660;42.664;23.266;2023-05-16T04:24:31;30.67;;;15.38;;
58878;SDS011;44660;42.664;23.266;2023-05-16T04:26:57;21.35;;;15.55;;
58878;SDS011;44660;42.664;23.266;2023-05-16T04:29:23;21.88;;;15.45;;
58878;SDS011;44660;42.664;23.266;2023-05-16T04:31:49;25.63;;;15.90;;
58878;SDS011;44660;42.664;23.266;2023-05-16T04:34:14;29.52;;;16.17;;
58878;SDS011;44660;42.664;23.266;2023-05-16T04:36:40;28.38;;;16.80;;
58878;SDS011;44660;42.664;23.266;2023-05-16T04:39:05;29.98;;;16.98;;
58878;SDS011;44660;42.664;23.266;2023-05-16T04:41:31;27.50;;;16.55;;
58878;SDS011;44660;42.664;23.266;2023-05-16T04:43:57;24.90;;;16.20;;
58878;SDS011;44660;42.664;23.266;2023-05-16T04:46:25;28.70;;;17.15;;
58878;SDS011;44660;42.664;23.266;2023-05-16T04:48:51;25.75;;;16.27;;
58878;SDS011;44660;42.664;23.266;2023-05-16T04:51:16;26.92;;;16.92;;
58878;SDS011;44660;42.664;23.266;2023-05-16T04:53:42;24.92;;;16.15;;
58878;SDS011;44660;42.664;23.266;2023-05-16T04:56:07;19.85;;;15.63;;
58878;SDS011;44660;42.664;23.266;2023-05-16T04:58:32;25.55;;;15.25;;
58878;SDS011;44660;42.664;23.266;2023-05-16T05:00:58;25.88;;;15.82;;
58878;SDS011;44660;42.664;23.266;2023-05-16T05:03:23;23.52;;;16.10;;
58878;SDS011;44660;42.664;23.266;2023-05-16T05:05:49;30.13;;;17.08;;
58878;SDS011;44660;42.664;23.266;2023-05-16T05:08:14;32.00;;;19.55;;
58878;SDS011;44660;42.664;23.266;2023-05-16T05:10:40;34.00;;;20.85;;
58878;SDS011;44660;42.664;23.266;2023-05-16T05:13:06;27.67;;;20.08;;
58878;SDS011;44660;42.664;23.266;2023-05-16T05:15:31;38.78;;;25.55;;
58878;SDS011;44660;42.664;23.266;2023-05-16T05:17:57;36.63;;;24.67;;
58878;SDS011;44660;42.664;23.266;2023-05-16T05:20:22;58.15;;;34.83;;
58878;SDS011;44660;42.664;23.266;2023-05-16T05:22:48;31.70;;;19.75;;
58878;SDS011;44660;42.664;23.266;2023-05-16T05:25:14;22.88;;;17.75;;
58878;SDS011;44660;42.664;23.266;2023-05-16T05:27:39;32.45;;;18.23;;
58878;SDS011;44660;42.664;23.266;2023-05-16T05:30:05;33.22;;;20.15;;
58878;SDS011;44660;42.664;23.266;2023-05-16T05:32:31;70.07;;;45.10;;
58878;SDS011;44660;42.664;23.266;2023-05-16T05:34:56;50.28;;;29.50;;
58878;SDS011;44660;42.664;23.266;2023-05-16T05:37:22;43.38;;;26.60;;
58878;SDS011;44660;42.664;23.266;2023-05-16T05:39:48;40.30;;;25.50;;
58878;SDS011;44660;42.664;23.266;2023-05-16T05:42:13;44.60;;;29.27;;
58878;SDS011;44660;42.664;23.266;2023-05-16T05:44:39;30.23;;;20.27;;
58878;SDS011;44660;42.664;23.266;2023-05-16T05:47:05;28.42;;;18.58;;
58878;SDS011;44660;42.664;23.266;2023-05-16T05:49:31;33.08;;;16.38;;
58878;SDS011;44660;42.664;23.266;2023-05-16T05:51:57;28.25;;;16.50;;
58878;SDS011;44660;42.664;23.266;2023-05-16T05:54:23;28.30;;;16.52;;
58878;SDS011;44660;42.664;23.266;2023-05-16T05:56:49;28.05;;;16.20;;
58878;SDS011;44660;42.664;23.266;2023-05-16T05:59:14;26.58;;;16.70;;
58878;SDS011;44660;42.664;23.266;2023-05-16T06:01:40;32.45;;;16.50;;
58878;SDS011;44660;42.664;23.266;2023-05-16T06:04:06;25.83;;;15.88;;
58878;SDS011;44660;42.664;23.266;2023-05-16T06:06:31;35.72;;;19.23;;
58878;SDS011;44660;42.664;23.266;2023-05-16T06:08:57;29.38;;;19.73;;
58878;SDS011;44660;42.664;23.266;2023-05-16T06:11:23;40.78;;;24.30;;
58878;SDS011;44660;42.664;23.266;2023-05-16T06:13:49;33.53;;;19.92;;
58878;SDS011;44660;42.664;23.266;2023-05-16T06:16:15;24.85;;;14.80;;
58878;SDS011;44660;42.664;23.266;2023-05-16T06:18:41;22.58;;;15.18;;
58878;SDS011;44660;42.664;23.266;2023-05-16T06:21:10;22.98;;;15.15;;
58878;SDS011;44660;42.664;23.266;2023-05-16T06:23:36;25.80;;;15.38;;
58878;SDS011;44660;42.664;23.266;2023-05-16T06:26:02;22.45;;;14.80;;
58878;SDS011;44660;42.664;23.266;2023-05-16T06:28:28;25.30;;;15.82;;
58878;SDS011;44660;42.664;23.266;2023-05-16T06:30:53;28.00;;;15.43;;
58878;SDS011;44660;42.664;23.266;2023-05-16T06:33:19;23.63;;;15.45;;
58878;SDS011;44660;42.664;23.266;2023-05-16T06:35:45;24.83;;;14.43;;
58878;SDS011;44660;42.664;23.266;2023-05-16T06:38:12;20.77;;;11.23;;
58878;SDS011;44660;42.664;23.266;2023-05-16T06:40:37;20.42;;;11.20;;
58878;SDS011;44660;42.664;23.266;2023-05-16T06:43:03;19.48;;;11.45;;
58878;SDS011;44660;42.664;23.266;2023-05-16T06:45:28;16.85;;;10.60;;
58878;SDS011;44660;42.664;23.266;2023-05-16T06:47:54;27.45;;;10.60;;
58878;SDS011;44660;42.664;23.266;2023-05-16T06:50:20;19.58;;;11.60;;
58878;SDS011;44660;42.664;23.266;2023-05-16T06:52:46;20.48;;;11.65;;
58878;SDS011;44660;42.664;23.266;2023-05-16T06:55:12;24.80;;;12.32;;
58878;SDS011;44660;42.664;23.266;2023-05-16T06:57:37;20.00;;;11.70;;
58878;SDS011;44660;42.664;23.266;2023-05-16T07:00:03;21.60;;;11.52;;
58878;SDS011;44660;42.664;23.266;2023-05-16T07:02:29;29.77;;;12.07;;
58878;SDS011;44660;42.664;23.266;2023-05-16T07:04:55;24.58;;;12.27;;
58878;SDS011;44660;42.664;23.266;2023-05-16T07:07:20;26.20;;;13.27;;
58878;SDS011;44660;42.664;23.266;2023-05-16T07:09:46;25.42;;;11.82;;
58878;SDS011;44660;42.664;23.266;2023-05-16T07:12:11;21.02;;;11.63;;
58878;SDS011;44660;42.664;23.266;2023-05-16T07:14:37;16.98;;;9.75;;
58878;SDS011;44660;42.664;23.266;2023-05-16T07:17:03;13.55;;;8.52;;
58878;SDS011;44660;42.664;23.266;2023-05-16T07:19:28;19.33;;;8.40;;
58878;SDS011;44660;42.664;23.266;2023-05-16T07:21:54;14.15;;;7.45;;
58878;SDS011;44660;42.664;23.266;2023-05-16T07:24:20;16.92;;;8.07;;
58878;SDS011;44660;42.664;23.266;2023-05-16T07:26:45;19.45;;;9.07;;
58878;SDS011;44660;42.664;23.266;2023-05-16T07:29:10;16.10;;;8.80;;
58878;SDS011;44660;42.664;23.266;2023-05-16T07:31:36;17.85;;;9.95;;
58878;SDS011;44660;42.664;23.266;2023-05-16T07:34:02;21.90;;;12.40;;
58878;SDS011;44660;42.664;23.266;2023-05-16T07:36:27;16.00;;;11.35;;
58878;SDS011;44660;42.664;23.266;2023-05-16T07:38:53;21.58;;;9.82;;
58878;SDS011;44660;42.664;23.266;2023-05-16T07:41:18;14.95;;;9.75;;
58878;SDS011;44660;42.664;23.266;2023-05-16T07:43:44;16.75;;;8.80;;
58878;SDS011;44660;42.664;23.266;2023-05-16T07:46:09;22.73;;;9.48;;
58878;SDS011;44660;42.664;23.266;2023-05-16T07:48:35;15.32;;;9.50;;
58878;SDS011;44660;42.664;23.266;2023-05-16T07:51:01;12.95;;;7.65;;
58878;SDS011;44660;42.664;23.266;2023-05-16T07:53:26;15.70;;;8.57;;
58878;SDS011;44660;42.664;23.266;2023-05-16T07:55:52;14.00;;;8.82;;
58878;SDS011;44660;42.664;23.266;2023-05-16T07:58:18;15.43;;;9.00;;
58878;SDS011;44660;42.664;23.266;2023-05-16T08:00:43;16.10;;;8.88;;
58878;SDS011;44660;42.664;23.266;2023-05-16T08:03:09;17.33;;;9.38;;
58878;SDS011;44660;42.664;23.266;2023-05-16T08:05:35;18.20;;;9.38;;
58878;SDS011;44660;42.664;23.266;2023-05-16T08:08:00;13.45;;;8.52;;
58878;SDS011;44660;42.664;23.266;2023-05-16T08:10:26;20.48;;;9.80;;
58878;SDS011;44660;42.664;23.266;2023-05-16T08:12:51;19.33;;;9.68;;
58878;SDS011;44660;42.664;23.266;2023-05-16T08:15:17;18.75;;;8.30;;
58878;SDS011;44660;42.664;23.266;2023-05-16T08:17:43;18.80;;;8.65;;
58878;SDS011;44660;42.664;23.266;2023-05-16T08:20:09;16.95;;;7.70;;
58878;SDS011;44660;42.664;23.266;2023-05-16T08:22:35;15.32;;;7.63;;
58878;SDS011;44660;42.664;23.266;2023-05-16T08:25:01;17.40;;;7.97;;
58878;SDS011;44660;42.664;23.266;2023-05-16T08:27:26;12.73;;;7.63;;
58878;SDS011;44660;42.664;23.266;2023-05-16T08:29:52;20.65;;;8.75;;
58878;SDS011;44660;42.664;23.266;2023-05-16T08:32:17;18.15;;;7.20;;
58878;SDS011;44660;42.664;23.266;2023-05-16T08:34:43;17.35;;;7.90;;
58878;SDS011;44660;42.664;23.266;2023-05-16T08:37:08;16.90;;;7.32;;
58878;SDS011;44660;42.664;23.266;2023-05-16T08:39:34;12.18;;;7.45;;
58878;SDS011;44660;42.664;23.266;2023-05-16T08:42:02;11.30;;;7.70;;
58878;SDS011;44660;42.664;23.266;2023-05-16T08:44:29;11.80;;;7.22;;
58878;SDS011;44660;42.664;23.266;2023-05-16T08:46:55;14.88;;;7.18;;
58878;SDS011;44660;42.664;23.266;2023-05-16T08:49:21;16.40;;;7.13;;
58878;SDS011;44660;42.664;23.266;2023-05-16T08:51:48;13.90;;;6.80;;
58878;SDS011;44660;42.664;23.266;2023-05-16T08:54:16;11.32;;;6.28;;
58878;SDS011;44660;42.664;23.266;2023-05-16T08:56:42;15.63;;;7.28;;
58878;SDS011;44660;42.664;23.266;2023-05-16T08:59:09;15.45;;;6.13;;
58878;SDS011;44660;42.664;23.266;2023-05-16T09:01:36;12.63;;;6.80;;
58878;SDS011;44660;42.664;23.266;2023-05-16T09:04:05;17.98;;;6.05;;
58878;SDS011;44660;42.664;23.266;2023-05-16T09:06:32;15.38;;;6.70;;
58878;SDS011;44660;42.664;23.266;2023-05-16T09:08:58;14.05;;;6.80;;
58878;SDS011;44660;42.664;23.266;2023-05-16T09:11:23;14.73;;;6.45;;
58878;SDS011;44660;42.664;23.266;2023-05-16T09:13:49;12.98;;;6.50;;
58878;SDS011;44660;42.664;23.266;2023-05-16T09:18:43;12.57;;;6.03;;
58878;SDS011;44660;42.664;23.266;2023-05-16T09:21:11;14.40;;;6.55;;
58878;SDS011;44660;42.664;23.266;2023-05-16T09:23:37;9.68;;;6.43;;
58878;SDS011;44660;42.664;23.266;2023-05-16T09:26:06;13.05;;;6.60;;
58878;SDS011;44660;42.664;23.266;2023-05-16T09:28:32;16.50;;;7.05;;
58878;SDS011;44660;42.664;23.266;2023-05-16T09:30:58;13.90;;;6.60;;
58878;SDS011;44660;42.664;23.266;2023-05-16T09:33:26;12.75;;;6.32;;
58878;SDS011;44660;42.664;23.266;2023-05-16T09:38:19;11.05;;;5.68;;
58878;SDS011;44660;42.664;23.266;2023-05-16T09:40:45;12.57;;;6.45;;
58878;SDS011;44660;42.664;23.266;2023-05-16T09:43:10;14.35;;;6.53;;
58878;SDS011;44660;42.664;23.266;2023-05-16T09:45:40;11.00;;;7.47;;
58878;SDS011;44660;42.664;23.266;2023-05-16T09:48:10;15.25;;;7.50;;
58878;SDS011;44660;42.664;23.266;2023-05-16T09:50:39;12.05;;;6.70;;
58878;SDS011;44660;42.664;23.266;2023-05-16T09:53:07;15.18;;;6.75;;
58878;SDS011;44660;42.664;23.266;2023-05-16T09:55:33;8.98;;;6.13;;
58878;SDS011;44660;42.664;23.266;2023-05-16T09:57:59;12.68;;;6.65;;
58878;SDS011;44660;42.664;23.266;2023-05-16T10:00:28;14.32;;;6.13;;
58878;SDS011;44660;42.664;23.266;2023-05-16T10:02:55;16.17;;;6.40;;
58878;SDS011;44660;42.664;23.266;2023-05-16T10:05:23;13.73;;;6.53;;
58878;SDS011;44660;42.664;23.266;2023-05-16T10:07:50;12.88;;;7.28;;
58878;SDS011;44660;42.664;23.266;2023-05-16T10:12:45;15.35;;;6.95;;
58878;SDS011;44660;42.664;23.266;2023-05-16T10:15:11;22.35;;;7.13;;
58878;SDS011;44660;42.664;23.266;2023-05-16T10:17:37;19.25;;;6.78;;
58878;SDS011;44660;42.664;23.266;2023-05-16T10:20:05;14.68;;;7.63;;
58878;SDS011;44660;42.664;23.266;2023-05-16T10:22:35;62.80;;;10.65;;
58878;SDS011;44660;42.664;23.266;2023-05-16T10:25:11;20.17;;;7.82;;
58878;SDS011;44660;42.664;23.266;2023-05-16T10:27:44;18.10;;;7.63;;
58878;SDS011;44660;42.664;23.266;2023-05-16T10:30:11;22.42;;;7.47;;
58878;SDS011;44660;42.664;23.266;2023-05-16T10:32:37;17.10;;;7.35;;
58878;SDS011;44660;42.664;23.266;2023-05-16T10:35:03;16.13;;;6.65;;
58878;SDS011;44660;42.664;23.266;2023-05-16T10:37:30;16.50;;;7.07;;
58878;SDS011;44660;42.664;23.266;2023-05-16T10:39:56;16.13;;;7.35;;
58878;SDS011;44660;42.664;23.266;2023-05-16T10:42:24;13.95;;;6.90;;
58878;SDS011;44660;42.664;23.266;2023-05-16T10:44:53;15.55;;;6.93;;
58878;SDS011;44660;42.664;23.266;2023-05-16T10:47:21;14.45;;;6.80;;
58878;SDS011;44660;42.664;23.266;2023-05-16T10:49:47;13.13;;;7.10;;
58878;SDS011;44660;42.664;23.266;2023-05-16T10:52:13;12.77;;;7.25;;
58878;SDS011;44660;42.664;23.266;2023-05-16T10:54:42;13.47;;;7.73;;
58878;SDS011;44660;42.664;23.266;2023-05-16T10:57:10;12.52;;;6.70;;
58878;SDS011;44660;42.664;23.266;2023-05-16T10:59:45;17.10;;;7.22;;
58878;SDS011;44660;42.664;23.266;2023-05-16T11:02:31;12.48;;;7.15;;
58878;SDS011;44660;42.664;23.266;2023-05-16T11:05:03;19.98;;;7.88;;
58878;SDS011;44660;42.664;23.266;2023-05-16T11:07:34;17.83;;;8.00;;
58878;SDS011;44660;42.664;23.266;2023-05-16T11:10:02;13.73;;;7.45;;
58878;SDS011;44660;42.664;23.266;2023-05-16T11:12:37;13.05;;;7.03;;
58878;SDS011;44660;42.664;23.266;2023-05-16T11:15:43;14.63;;;6.78;;
58878;SDS011;44660;42.664;23.266;2023-05-16T11:20:40;14.43;;;7.30;;
58878;SDS011;44660;42.664;23.266;2023-05-16T11:25:47;17.70;;;7.68;;
58878;SDS011;44660;42.664;23.266;2023-05-16T11:28:18;14.90;;;7.20;;
58878;SDS011;44660;42.664;23.266;2023-05-16T11:30:51;12.35;;;7.50;;
58878;SDS011;44660;42.664;23.266;2023-05-16T11:33:20;15.40;;;7.03;;
58878;SDS011;44660;42.664;23.266;2023-05-16T11:36:02;18.13;;;7.53;;
58878;SDS011;44660;42.664;23.266;2023-05-16T11:38:30;14.80;;;7.13;;
58878;SDS011;44660;42.664;23.266;2023-05-16T11:41:06;18.30;;;7.90;;
58878;SDS011;44660;42.664;23.266;2023-05-16T11:43:36;17.88;;;7.72;;
58878;SDS011;44660;42.664;23.266;2023-05-16T11:46:05;16.05;;;8.18;;
58878;SDS011;44660;42.664;23.266;2023-05-16T11:48:32;13.88;;;7.45;;
58878;SDS011;44660;42.664;23.266;2023-05-16T11:50:57;18.42;;;7.88;;
58878;SDS011;44660;42.664;23.266;2023-05-16T11:53:23;16.15;;;7.45;;
58878;SDS011;44660;42.664;23.266;2023-05-16T11:55:49;16.80;;;8.10;;
58878;SDS011;44660;42.664;23.266;2023-05-16T11:58:17;15.15;;;7.32;;
58878;SDS011;44660;42.664;23.266;2023-05-16T12:00:47;16.80;;;8.68;;
58878;SDS011;44660;42.664;23.266;2023-05-16T12:03:14;14.32;;;7.80;;
58878;SDS011;44660;42.664;23.266;2023-05-16T12:05:51;14.23;;;7.95;;
58878;SDS011;44660;42.664;23.266;2023-05-16T12:08:19;14.45;;;8.20;;
58878;SDS011;44660;42.664;23.266;2023-05-16T12:10:46;15.57;;;8.25;;
58878;SDS011;44660;42.664;23.266;2023-05-16T12:13:14;22.58;;;8.57;;
58878;SDS011;44660;42.664;23.266;2023-05-16T12:15:40;13.55;;;7.95;;
58878;SDS011;44660;42.664;23.266;2023-05-16T12:18:07;21.35;;;8.07;;
58878;SDS011;44660;42.664;23.266;2023-05-16T12:20:33;13.23;;;6.80;;
58878;SDS011;44660;42.664;23.266;2023-05-16T12:22:59;12.15;;;7.28;;
58878;SDS011;44660;42.664;23.266;2023-05-16T12:25:25;17.83;;;7.90;;
58878;SDS011;44660;42.664;23.266;2023-05-16T12:27:56;17.35;;;8.05;;
58878;SDS011;44660;42.664;23.266;2023-05-16T12:30:23;18.85;;;9.35;;
58878;SDS011;44660;42.664;23.266;2023-05-16T12:33:00;18.42;;;9.05;;
58878;SDS011;44660;42.664;23.266;2023-05-16T12:35:32;18.80;;;9.60;;
58878;SDS011;44660;42.664;23.266;2023-05-16T12:37:59;16.65;;;8.88;;
58878;SDS011;44660;42.664;23.266;2023-05-16T12:40:28;19.17;;;10.35;;
58878;SDS011;44660;42.664;23.266;2023-05-16T12:42:54;17.95;;;9.13;;
58878;SDS011;44660;42.664;23.266;2023-05-16T12:45:20;17.08;;;8.45;;
58878;SDS011;44660;42.664;23.266;2023-05-16T12:47:47;11.93;;;8.35;;
58878;SDS011;44660;42.664;23.266;2023-05-16T12:50:13;17.23;;;8.80;;
58878;SDS011;44660;42.664;23.266;2023-05-16T12:52:53;14.82;;;9.48;;
58878;SDS011;44660;42.664;23.266;2023-05-16T12:55:23;17.27;;;10.13;;
58878;SDS011;44660;42.664;23.266;2023-05-16T12:57:49;21.10;;;9.55;;
58878;SDS011;44660;42.664;23.266;2023-05-16T13:00:15;20.10;;;10.60;;
58878;SDS011;44660;42.664;23.266;2023-05-16T13:02:46;19.65;;;11.07;;
58878;SDS011;44660;42.664;23.266;2023-05-16T13:05:12;22.17;;;10.20;;
58878;SDS011;44660;42.664;23.266;2023-05-16T13:07:38;24.45;;;9.85;;
58878;SDS011;44660;42.664;23.266;2023-05-16T13:10:05;17.10;;;9.02;;
58878;SDS011;44660;42.664;23.266;2023-05-16T13:12:34;22.25;;;9.35;;
58878;SDS011;44660;42.664;23.266;2023-05-16T13:15:00;20.20;;;10.13;;
58878;SDS011;44660;42.664;23.266;2023-05-16T13:17:25;22.38;;;11.88;;
58878;SDS011;44660;42.664;23.266;2023-05-16T13:19:54;63.17;;;41.53;;
58878;SDS011;44660;42.664;23.266;2023-05-16T13:22:19;50.50;;;31.23;;
58878;SDS011;44660;42.664;23.266;2023-05-16T13:24:45;35.67;;;23.52;;
58878;SDS011;44660;42.664;23.266;2023-05-16T13:27:14;19.35;;;11.02;;
58878;SDS011;44660;42.664;23.266;2023-05-16T13:29:40;24.83;;;9.98;;
58878;SDS011;44660;42.664;23.266;2023-05-16T13:32:06;20.95;;;9.75;;
58878;SDS011;44660;42.664;23.266;2023-05-16T13:34:31;17.10;;;9.52;;
58878;SDS011;44660;42.664;23.266;2023-05-16T13:36:57;22.23;;;10.02;;
58878;SDS011;44660;42.664;23.266;2023-05-16T13:39:23;21.77;;;10.38;;
58878;SDS011;44660;42.664;23.266;2023-05-16T13:41:49;21.67;;;10.10;;
58878;SDS011;44660;42.664;23.266;2023-05-16T13:44:15;25.33;;;10.10;;
58878;SDS011;44660;42.664;23.266;2023-05-16T13:46:40;30.77;;;11.27;;
58878;SDS011;44660;42.664;23.266;2023-05-16T13:49:06;21.80;;;10.15;;
58878;SDS011;44660;42.664;23.266;2023-05-16T13:51:32;24.13;;;10.15;;
58878;SDS011;44660;42.664;23.266;2023-05-16T13:53:57;24.85;;;10.63;;
58878;SDS011;44660;42.664;23.266;2023-05-16T13:56:23;21.58;;;10.90;;
58878;SDS011;44660;42.664;23.266;2023-05-16T13:58:49;20.75;;;11.20;;
58878;SDS011;44660;42.664;23.266;2023-05-16T14:01:15;24.40;;;10.52;;
58878;SDS011;44660;42.664;23.266;2023-05-16T14:03:41;21.48;;;10.30;;
58878;SDS011;44660;42.664;23.266;2023-05-16T14:06:07;24.88;;;11.15;;
58878;SDS011;44660;42.664;23.266;2023-05-16T14:08:33;30.65;;;11.75;;
58878;SDS011;44660;42.664;23.266;2023-05-16T14:11:00;19.27;;;11.20;;
58878;SDS011;44660;42.664;23.266;2023-05-16T14:13:25;26.25;;;11.80;;
58878;SDS011;44660;42.664;23.266;2023-05-16T14:15:50;28.65;;;13.13;;
58878;SDS011;44660;42.664;23.266;2023-05-16T14:18:16;48.28;;;27.40;;
58878;SDS011;44660;42.664;23.266;2023-05-16T14:20:41;35.50;;;23.05;;
58878;SDS011;44660;42.664;23.266;2023-05-16T14:23:07;24.80;;;14.68;;
58878;SDS011;44660;42.664;23.266;2023-05-16T14:25:32;21.30;;;12.82;;
58878;SDS011;44660;42.664;23.266;2023-05-16T14:27:58;25.33;;;11.90;;
58878;SDS011;44660;42.664;23.266;2023-05-16T14:30:23;19.98;;;11.57;;
58878;SDS011;44660;42.664;23.266;2023-05-16T14:32:49;24.20;;;11.80;;
58878;SDS011;44660;42.664;23.266;2023-05-16T14:35:15;19.27;;;11.50;;
58878;SDS011;44660;42.664;23.266;2023-05-16T14:37:40;18.90;;;11.40;;
58878;SDS011;44660;42.664;23.266;2023-05-16T14:40:06;28.17;;;12.88;;